Time;durP1;ratioP1;P1;durP2;ratioP2;P2;SDS_P1;SDS_P2;PMS_P1;PMS_P2;Temp;Humidity;BMP_temperature;BMP_pressure;BME280_temperature;BME280_humidity;BME280_pressure;Samples;Min_cycle;Max_cycle;Signal;HPM_P1;HPM_P2
2021/03/02 00:02:02;;;;;;;52.30;20.23;;;5.00;98.70;;;;;;4805497;29;20082;-77
2021/03/02 00:04:29;;;;;;;52.97;21.33;;;5.00;98.60;;;;;;4803706;29;20046;-77
2021/03/02 00:06:55;;;;;;;44.33;19.08;;;4.90;98.80;;;;;;4803712;29;20043;-77
2021/03/02 00:09:21;;;;;;;38.22;17.98;;;4.90;98.60;;;;;;4803911;29;20312;-77
2021/03/02 00:11:48;;;;;;;43.22;18.70;;;4.90;98.70;;;;;;4803703;29;20487;-78
2021/03/02 00:14:14;;;;;;;42.80;17.83;;;4.90;98.70;;;;;;4805417;29;20505;-76
2021/03/02 00:16:50;;;;;;;41.22;17.13;;;5.00;98.70;;;;;;4787986;29;20528;-79
2021/03/02 00:19:19;;;;;;;34.55;16.45;;;5.00;98.60;;;;;;4803816;29;20051;-78
2021/03/02 00:21:58;;;;;;;39.72;17.00;;;4.90;98.40;;;;;;4787473;29;20073;-78
2021/03/02 00:24:46;;;;;;;42.47;18.33;;;4.90;98.30;;;;;;4787671;29;20097;-79
2021/03/02 00:27:14;;;;;;;;;;;4.80;98.60;;;;;;4788019;29;20046;-78
2021/03/02 00:29:41;;;;;;;39.25;17.60;;;4.90;98.60;;;;;;4803797;29;19991;-79
2021/03/02 00:32:08;;;;;;;43.25;19.02;;;4.90;98.60;;;;;;4805327;29;20415;-76
2021/03/02 00:34:34;;;;;;;44.72;19.23;;;4.90;98.70;;;;;;4804314;29;20039;-78
2021/03/02 00:36:59;;;;;;;55.17;21.55;;;4.90;98.80;;;;;;4804938;29;20035;-78
2021/03/02 00:39:25;;;;;;;51.60;20.98;;;4.70;98.80;;;;;;4803998;29;20100;-78
2021/03/02 00:41:50;;;;;;;48.92;21.88;;;4.80;99.20;;;;;;4803281;29;20107;-76
2021/03/02 00:44:16;;;;;;;61.55;25.17;;;4.90;99.00;;;;;;4804831;29;20091;-77
2021/03/02 00:46:41;;;;;;;59.58;24.48;;;4.80;99.00;;;;;;4787843;29;20043;-77
2021/03/02 00:49:07;;;;;;;63.67;26.08;;;4.80;99.20;;;;;;4802333;29;20050;-78
2021/03/02 00:51:33;;;;;;;63.85;26.50;;;4.80;99.30;;;;;;4803368;29;20039;-77
2021/03/02 00:53:58;;;;;;;62.10;25.13;;;4.80;99.30;;;;;;4803135;29;20061;-77
2021/03/02 00:56:24;;;;;;;62.20;26.30;;;4.80;99.40;;;;;;4803362;29;20046;-77
2021/03/02 00:58:50;;;;;;;63.58;25.67;;;4.80;99.40;;;;;;4789069;29;20103;-76
2021/03/02 01:01:15;;;;;;;63.45;25.45;;;4.70;99.60;;;;;;4803331;29;20110;-78
2021/03/02 01:03:41;;;;;;;72.22;27.63;;;4.80;99.80;;;;;;4803076;29;20054;-78
2021/03/02 01:06:06;;;;;;;64.40;26.08;;;5.00;99.80;;;;;;4803313;29;20051;-78
2021/03/02 01:08:32;;;;;;;68.68;26.92;;;5.00;99.70;;;;;;4803220;29;20061;-78
2021/03/02 01:10:58;;;;;;;68.97;27.15;;;5.10;99.60;;;;;;4804754;29;20038;-77
2021/03/02 01:13:23;;;;;;;69.75;26.95;;;5.10;99.60;;;;;;4803178;29;20070;-77
2021/03/02 01:15:50;;;;;;;63.67;27.17;;;5.10;99.60;;;;;;4803000;29;20039;-77
2021/03/02 01:18:16;;;;;;;62.55;25.55;;;5.20;99.50;;;;;;4803249;29;20062;-79
2021/03/02 01:20:41;;;;;;;65.38;26.60;;;5.40;99.50;;;;;;4787055;29;20039;-78
2021/03/02 01:23:08;;;;;;;65.22;27.98;;;5.30;99.40;;;;;;4804748;29;20031;-80
2021/03/02 01:25:34;;;;;;;65.60;26.88;;;5.30;99.50;;;;;;4801920;29;20338;-78
2021/03/02 01:27:59;;;;;;;63.72;26.15;;;5.30;99.60;;;;;;4786796;29;20063;-78
2021/03/02 01:30:26;;;;;;;73.95;28.98;;;5.20;99.50;;;;;;4802989;29;20078;-76
2021/03/02 01:32:52;;;;;;;70.40;28.02;;;5.10;99.70;;;;;;4803117;29;20038;-77
2021/03/02 01:35:17;;;;;;;74.57;28.40;;;5.20;99.60;;;;;;4802860;29;20045;-77
2021/03/02 01:37:43;;;;;;;72.82;29.02;;;5.20;99.70;;;;;;4804571;29;20118;-78
2021/03/02 01:40:14;;;;;;;68.78;28.38;;;5.10;99.70;;;;;;4802936;29;20047;-77
2021/03/02 01:42:40;;;;;;;71.75;28.02;;;5.10;99.80;;;;;;4802841;29;20035;-78
2021/03/02 01:45:08;;;;;;;77.88;29.92;;;5.20;99.90;;;;;;4803164;29;20077;-78
2021/03/02 01:47:35;;;;;;;75.20;28.85;;;5.20;99.90;;;;;;4805653;29;20027;-78
2021/03/02 01:50:02;;;;;;;76.50;29.13;;;5.10;99.90;;;;;;4807921;29;20126;-78
2021/03/02 01:52:28;;;;;;;76.38;29.30;;;5.10;99.90;;;;;;4790303;29;20035;-77
2021/03/02 01:54:53;;;;;;;77.55;31.33;;;5.20;99.90;;;;;;4806199;29;20047;-77
2021/03/02 01:57:19;;;;;;;82.20;31.30;;;5.20;99.90;;;;;;4806159;29;20035;-76
2021/03/02 01:59:44;;;;;;;81.53;31.92;;;5.40;99.90;;;;;;4805957;29;20062;-77
2021/03/02 02:02:16;;;;;;;80.90;29.63;;;5.60;99.90;;;;;;4806310;29;20035;-77
2021/03/02 02:04:49;;;;;;;82.35;30.77;;;5.30;99.90;;;;;;4806672;29;20042;-77
2021/03/02 02:07:31;;;;;;;78.95;29.63;;;5.30;99.90;;;;;;4805854;29;20038;-77
2021/03/02 02:10:09;;;;;;;94.32;31.67;;;5.40;99.90;;;;;;4805930;29;20055;-77
2021/03/02 02:12:43;;;;;;;92.78;31.65;;;5.30;99.80;;;;;;4806129;29;20053;-78
2021/03/02 02:15:12;;;;;;;94.70;32.45;;;5.30;99.90;;;;;;4789984;29;20043;-78
2021/03/02 02:17:55;;;;;;;82.97;28.63;;;5.30;99.90;;;;;;4806156;29;20046;-79
2021/03/02 02:20:58;;;;;;;76.90;28.15;;;5.30;99.90;;;;;;4805585;29;20043;-80
2021/03/02 02:23:45;;;;;;;79.78;28.20;;;5.20;99.90;;;;;;4789624;29;20027;-78
2021/03/02 02:26:38;;;;;;;75.15;27.17;;;5.20;99.90;;;;;;4807755;29;20031;-78
2021/03/02 02:29:06;;;;;;;78.95;26.27;;;5.20;99.90;;;;;;4806011;29;20043;-79
2021/03/02 02:31:33;;;;;;;71.40;28.38;;;5.20;99.80;;;;;;4805553;29;20493;-78
2021/03/02 02:34:00;;;;;;;95.90;31.42;;;5.20;99.80;;;;;;4805422;29;20035;-78
2021/03/02 02:36:26;;;;;;;95.13;33.80;;;5.10;99.90;;;;;;4800987;29;20078;-78
2021/03/02 02:38:54;;;;;;;104.75;35.17;;;5.20;99.90;;;;;;4807710;29;20207;-77
2021/03/02 02:41:21;;;;;;;119.53;36.95;;;5.20;99.90;;;;;;4823182;29;20339;-77
2021/03/02 02:43:52;;;;;;;126.90;37.70;;;5.10;99.90;;;;;;4825090;29;20034;-78
2021/03/02 02:46:19;;;;;;;112.80;37.47;;;5.10;99.90;;;;;;4823360;29;20046;-78
2021/03/02 02:48:47;;;;;;;134.15;39.20;;;5.00;99.90;;;;;;4807344;29;20046;-78
2021/03/02 02:51:13;;;;;;;117.22;35.47;;;5.00;99.90;;;;;;4807239;29;20083;-76
2021/03/02 02:53:40;;;;;;;118.80;34.03;;;5.00;99.90;;;;;;4823440;29;20031;-77
2021/03/02 02:56:06;;;;;;;127.60;38.00;;;4.90;99.90;;;;;;4824724;29;20473;-76
2021/03/02 02:58:38;;;;;;;124.00;38.33;;;4.90;99.90;;;;;;4806429;29;20045;-77
2021/03/02 03:01:04;;;;;;;163.95;47.70;;;5.00;99.90;;;;;;4823030;29;20465;-77
2021/03/02 03:03:35;;;;;;;153.35;45.58;;;5.00;99.90;;;;;;4806791;29;20055;-77
2021/03/02 03:06:05;;;;;;;124.25;38.28;;;4.90;99.90;;;;;;4823180;29;20065;-77
2021/03/02 03:08:33;;;;;;;110.80;35.20;;;4.90;99.90;;;;;;4822841;29;20044;-76
2021/03/02 03:11:01;;;;;;;108.72;34.88;;;5.00;99.90;;;;;;4824597;29;20026;-76
2021/03/02 03:13:33;;;;;;;87.15;28.88;;;5.10;99.90;;;;;;4823123;29;20049;-76
2021/03/02 03:16:02;;;;;;;84.07;29.88;;;4.90;99.90;;;;;;4806769;29;20117;-77
2021/03/02 03:18:41;;;;;;;83.75;28.15;;;4.90;99.90;;;;;;4823244;29;20038;-76
2021/03/02 03:21:07;;;;;;;72.55;26.15;;;4.90;99.90;;;;;;4822749;29;20117;-78
2021/03/02 03:23:35;;;;;;;66.43;23.50;;;5.10;99.90;;;;;;4822845;29;20114;-76
2021/03/02 03:26:01;;;;;;;62.97;23.00;;;5.00;99.90;;;;;;4808301;29;20045;-77
2021/03/02 03:28:27;;;;;;;72.78;24.13;;;5.00;99.90;;;;;;4823026;29;20043;-77
2021/03/02 03:30:54;;;;;;;70.43;25.40;;;5.00;99.90;;;;;;4822777;29;20088;-77
2021/03/02 03:33:20;;;;;;;57.08;23.08;;;5.00;99.90;;;;;;4822660;29;20499;-78
2021/03/02 03:35:46;;;;;;;58.53;23.00;;;5.00;99.90;;;;;;4822732;29;20125;-76
2021/03/02 03:38:11;;;;;;;58.50;21.27;;;5.00;99.90;;;;;;4824218;29;20109;-77
2021/03/02 03:40:37;;;;;;;66.38;25.35;;;5.10;99.90;;;;;;4822614;29;20042;-78
2021/03/02 03:43:03;;;;;;;53.80;22.00;;;5.10;99.90;;;;;;4822784;29;20038;-76
2021/03/02 03:45:28;;;;;;;57.78;21.48;;;5.00;99.90;;;;;;4806102;29;20038;-77
2021/03/02 03:47:56;;;;;;;100.25;30.40;;;5.00;99.90;;;;;;4822551;29;20061;-77
2021/03/02 03:50:21;;;;;;;137.65;38.58;;;5.00;99.90;;;;;;4822740;29;20038;-78
2021/03/02 03:52:58;;;;;;;171.57;45.83;;;4.90;99.90;;;;;;4823975;29;20034;-78
2021/03/02 03:55:29;;;;;;;154.50;42.43;;;5.00;99.90;;;;;;4822885;29;20450;-77
2021/03/02 03:57:55;;;;;;;157.98;46.47;;;5.00;99.90;;;;;;4822307;29;20043;-78
2021/03/02 04:00:21;;;;;;;170.57;44.40;;;5.10;99.90;;;;;;4822281;29;20334;-78
2021/03/02 04:02:49;;;;;;;140.27;39.35;;;5.10;99.90;;;;;;4822162;29;20050;-78
2021/03/02 04:05:15;;;;;;;126.28;38.83;;;5.20;99.90;;;;;;4823651;29;20035;-78
2021/03/02 04:07:42;;;;;;;110.97;33.67;;;5.20;99.90;;;;;;4822187;29;20042;-78
2021/03/02 04:10:08;;;;;;;105.97;35.28;;;5.30;99.90;;;;;;4821431;29;20042;-78
2021/03/02 04:12:42;;;;;;;71.60;25.55;;;5.40;99.90;;;;;;4821924;29;20049;-78
2021/03/02 04:15:16;;;;;;;63.47;23.95;;;5.20;99.90;;;;;;4805744;29;20054;-79
2021/03/02 04:17:52;;;;;;;47.25;19.05;;;5.10;99.90;;;;;;4805719;29;20118;-77
2021/03/02 04:20:18;;;;;;;48.38;19.58;;;5.10;99.90;;;;;;4821781;29;20047;-75
2021/03/02 04:22:44;;;;;;;46.50;18.55;;;5.10;99.90;;;;;;4823587;29;20055;-77
2021/03/02 04:25:11;;;;;;;44.08;17.92;;;5.10;99.90;;;;;;4822204;29;20035;-78
2021/03/02 04:27:37;;;;;;;37.38;16.15;;;5.00;99.90;;;;;;4821764;29;20050;-78
2021/03/02 04:30:03;;;;;;;46.15;17.48;;;5.00;99.90;;;;;;4821807;29;20053;-78
2021/03/02 04:32:29;;;;;;;37.47;16.67;;;5.00;99.90;;;;;;4805453;29;20041;-77
2021/03/02 04:34:55;;;;;;;35.30;16.02;;;4.90;99.90;;;;;;4823123;29;20035;-77
2021/03/02 04:37:20;;;;;;;35.08;13.77;;;4.90;99.90;;;;;;4821992;29;20179;-80
2021/03/02 04:39:46;;;;;;;33.22;14.70;;;4.80;99.90;;;;;;4805347;29;20038;-79
2021/03/02 04:42:12;;;;;;;32.58;14.57;;;4.70;99.90;;;;;;4805109;29;20042;-77
2021/03/02 04:44:37;;;;;;;40.58;14.57;;;4.70;99.90;;;;;;4821975;29;20034;-76
2021/03/02 04:47:03;;;;;;;33.80;14.15;;;4.60;99.90;;;;;;4823393;29;20032;-79
2021/03/02 04:49:29;;;;;;;46.53;17.48;;;4.60;99.90;;;;;;4821745;29;20220;-80
2021/03/02 04:51:54;;;;;;;57.53;18.67;;;4.70;99.90;;;;;;4805463;29;20377;-80
2021/03/02 04:54:20;;;;;;;66.45;18.90;;;4.70;99.90;;;;;;4821734;29;20458;-79
2021/03/02 04:56:46;;;;;;;62.67;19.60;;;4.70;99.90;;;;;;4821616;29;20030;-81
2021/03/02 04:59:11;;;;;;;64.32;20.23;;;4.80;99.90;;;;;;4823374;29;20384;-80
2021/03/02 05:01:38;;;;;;;62.55;19.73;;;4.90;99.90;;;;;;4805714;29;20053;-82
2021/03/02 05:04:04;;;;;;;43.15;15.25;;;4.80;99.90;;;;;;4821484;29;20137;-81
2021/03/02 05:06:29;;;;;;;37.95;14.27;;;4.70;99.90;;;;;;4805214;29;20557;-81
2021/03/02 05:08:55;;;;;;;32.50;14.02;;;4.70;99.90;;;;;;4821486;29;20103;-81
2021/03/02 05:11:20;;;;;;;39.45;14.35;;;4.70;99.90;;;;;;4805225;29;20365;-81
2021/03/02 05:13:47;;;;;;;50.88;17.20;;;4.60;99.90;;;;;;4822473;29;20097;-79
2021/03/02 05:16:13;;;;;;;64.47;21.27;;;4.60;99.90;;;;;;4805462;29;20494;-79
2021/03/02 05:18:41;;;;;;;65.63;21.75;;;4.60;99.90;;;;;;4821446;29;20117;-79
2021/03/02 05:21:07;;;;;;;56.17;20.20;;;4.70;99.90;;;;;;4806233;29;20480;-81
2021/03/02 05:23:33;;;;;;;46.58;17.10;;;4.60;99.90;;;;;;4825242;29;20113;-81
2021/03/02 05:25:58;;;;;;;44.15;15.88;;;4.50;99.90;;;;;;4826432;29;20109;-81
2021/03/02 05:28:24;;;;;;;31.13;13.73;;;4.50;99.90;;;;;;4824740;29;20054;-81
2021/03/02 05:30:51;;;;;;;33.28;14.88;;;4.40;99.90;;;;;;4824492;29;20153;-80
2021/03/02 05:33:17;;;;;;;33.45;14.27;;;4.40;99.90;;;;;;4824989;29;20502;-80
2021/03/02 05:35:42;;;;;;;32.80;13.90;;;4.40;99.90;;;;;;4824805;29;20042;-80
2021/03/02 05:38:08;;;;;;;36.25;14.65;;;4.40;99.90;;;;;;4826691;29;20030;-80
2021/03/02 05:40:34;;;;;;;37.92;16.52;;;4.40;99.90;;;;;;4808704;29;20090;-81
2021/03/02 05:42:59;;;;;;;38.72;15.35;;;4.50;99.90;;;;;;4808476;29;20083;-81
2021/03/02 05:45:25;;;;;;;43.13;16.45;;;4.50;99.90;;;;;;4824777;29;20106;-81
2021/03/02 05:47:52;;;;;;;40.00;16.77;;;4.70;99.90;;;;;;4824590;29;20062;-80
2021/03/02 05:50:18;;;;;;;41.22;16.70;;;4.70;99.90;;;;;;4824662;29;20045;-80
2021/03/02 05:52:45;;;;;;;36.42;15.35;;;4.60;99.90;;;;;;4825934;29;20026;-81
2021/03/02 05:55:12;;;;;;;40.88;17.10;;;4.60;99.90;;;;;;4824430;29;20385;-83
2021/03/02 05:57:38;;;;;;;43.25;17.98;;;4.60;99.90;;;;;;4824269;29;20046;-82
2021/03/02 06:00:05;;;;;;;44.80;18.98;;;4.60;99.90;;;;;;4808189;29;20042;-80
2021/03/02 06:02:32;;;;;;;45.08;18.92;;;4.70;99.90;;;;;;4824028;29;20046;-80
2021/03/02 06:04:57;;;;;;;42.70;18.67;;;4.70;99.90;;;;;;4809659;29;20073;-80
2021/03/02 06:07:23;;;;;;;42.90;18.08;;;4.60;99.90;;;;;;4808036;29;20149;-80
2021/03/02 06:09:49;;;;;;;47.15;18.98;;;4.70;99.90;;;;;;4824351;29;20042;-80
2021/03/02 06:12:15;;;;;;;40.85;18.27;;;4.60;99.90;;;;;;4824281;29;20050;-80
2021/03/02 06:14:41;;;;;;;46.22;19.98;;;4.60;99.90;;;;;;4824105;29;20423;-79
2021/03/02 06:17:07;;;;;;;49.05;21.05;;;4.70;99.90;;;;;;4825550;29;20583;-80
2021/03/02 06:19:47;;;;;;;55.63;22.08;;;4.80;99.90;;;;;;4823855;29;20050;-79
2021/03/02 06:22:36;;;;;;;51.03;21.77;;;4.80;99.90;;;;;;4808151;29;20042;-80
2021/03/02 06:25:04;;;;;;;57.17;24.60;;;4.90;99.90;;;;;;4826796;29;20076;-79
2021/03/02 06:27:31;;;;;;;53.67;22.95;;;4.80;99.90;;;;;;4809892;29;20038;-81
2021/03/02 06:30:07;;;;;;;55.67;22.48;;;4.80;99.90;;;;;;4827381;29;20133;-82
2021/03/02 06:32:41;;;;;;;57.45;25.48;;;4.70;99.90;;;;;;4825451;29;20041;-80
2021/03/02 06:35:08;;;;;;;57.65;24.05;;;4.60;99.90;;;;;;4828474;29;20094;-80
2021/03/02 06:37:45;;;;;;;63.40;26.67;;;4.50;99.90;;;;;;4826585;29;20054;-81
2021/03/02 06:40:13;;;;;;;65.35;26.45;;;4.70;99.90;;;;;;4826496;29;20051;-81
2021/03/02 06:42:40;;;;;;;;;;;4.70;99.90;;;;;;4826489;29;20039;-79
2021/03/02 06:45:13;;;;;;;64.53;24.37;;;4.60;99.90;;;;;;4810043;29;20088;-81
2021/03/02 06:47:43;;;;;;;60.92;24.45;;;4.80;99.90;;;;;;4825761;29;20042;-79
2021/03/02 06:50:12;;;;;;;61.72;25.40;;;4.80;99.90;;;;;;4826942;29;20114;-79
2021/03/02 06:52:42;;;;;;;67.35;26.85;;;4.80;99.90;;;;;;4824833;29;20172;-77
2021/03/02 06:55:17;;;;;;;68.53;28.80;;;4.90;99.90;;;;;;4824835;29;20370;-79
2021/03/02 06:57:43;;;;;;;69.00;26.75;;;4.90;99.90;;;;;;4824306;29;20062;-76
2021/03/02 07:00:10;;;;;;;62.33;25.65;;;4.90;99.90;;;;;;4824220;29;20057;-79
2021/03/02 07:02:37;;;;;;;72.53;28.50;;;4.80;99.90;;;;;;4823729;29;20047;-81
2021/03/02 07:05:14;;;;;;;86.30;30.75;;;4.50;99.90;;;;;;4825882;29;20053;-81
2021/03/02 07:07:49;;;;;;;66.15;26.67;;;4.50;99.90;;;;;;4823873;29;20457;-79
2021/03/02 07:10:15;;;;;;;63.20;26.27;;;4.40;99.90;;;;;;4824307;29;20046;-80
2021/03/02 07:12:44;;;;;;;53.97;23.60;;;4.30;99.90;;;;;;4808981;29;20046;-79
2021/03/02 07:15:12;;;;;;;52.72;22.05;;;4.30;99.90;;;;;;4825126;29;20046;-80
2021/03/02 07:17:40;;;;;;;;;;;4.30;99.90;;;;;;4824825;29;20038;-78
2021/03/02 07:20:09;;;;;;;55.30;23.92;;;4.30;99.90;;;;;;4825645;29;20448;-80
2021/03/02 07:22:37;;;;;;;63.75;24.52;;;4.30;99.90;;;;;;4823859;29;20145;-80
2021/03/02 07:25:08;;;;;;;66.38;27.40;;;4.40;99.90;;;;;;4824015;29;20034;-78
2021/03/02 07:27:42;;;;;;;62.65;28.40;;;4.40;99.90;;;;;;4807717;29;20070;-79
2021/03/02 07:30:10;;;;;;;64.47;25.23;;;4.50;99.90;;;;;;4824025;29;20046;-78
2021/03/02 07:32:36;;;;;;;54.35;24.40;;;4.40;99.90;;;;;;4823611;29;20354;-79
2021/03/02 07:35:02;;;;;;;53.85;22.42;;;4.40;99.90;;;;;;4825137;29;20086;-79
2021/03/02 07:37:28;;;;;;;77.60;29.77;;;4.50;99.90;;;;;;4822806;29;20061;-80
2021/03/02 07:40:05;;;;;;;84.35;30.20;;;4.70;99.90;;;;;;4822614;29;20058;-80
2021/03/02 07:42:31;;;;;;;85.93;30.37;;;4.70;99.90;;;;;;4822644;29;20046;-81
2021/03/02 07:45:08;;;;;;;89.50;31.23;;;4.70;99.90;;;;;;4805941;29;20039;-80
2021/03/02 07:47:50;;;;;;;114.88;37.35;;;4.80;99.90;;;;;;4822221;29;20038;-80
2021/03/02 07:50:24;;;;;;;111.57;37.13;;;4.90;99.90;;;;;;4823911;29;20042;-79
2021/03/02 07:53:27;;;;;;;77.25;27.27;;;5.00;99.90;;;;;;4806026;29;20051;-78
2021/03/02 07:56:15;;;;;;;54.50;21.73;;;5.00;99.70;;;;;;4822737;29;20248;-80
2021/03/02 07:58:42;;;;;;;54.50;22.58;;;5.00;99.60;;;;;;4805737;29;20042;-80
2021/03/02 08:01:18;;;;;;;51.25;20.75;;;4.80;99.60;;;;;;4822510;29;20125;-79
2021/03/02 08:03:43;;;;;;;52.78;21.95;;;4.90;99.70;;;;;;4822063;29;20125;-79
2021/03/02 08:06:22;;;;;;;48.72;20.83;;;4.80;99.80;;;;;;4806258;29;20146;-80
2021/03/02 08:08:49;;;;;;;53.00;21.88;;;4.70;99.90;;;;;;4821895;29;20514;-79
2021/03/02 08:11:33;;;;;;;54.55;21.48;;;4.80;99.90;;;;;;4807971;29;20412;-79
2021/03/02 08:14:17;;;;;;;48.70;21.35;;;4.90;99.90;;;;;;4822471;29;20042;-77
2021/03/02 08:16:58;;;;;;;46.70;19.73;;;4.90;99.80;;;;;;4822539;29;20050;-78
2021/03/02 08:19:33;;;;;;;45.92;19.67;;;5.00;99.80;;;;;;4822227;29;20069;-78
2021/03/02 08:21:58;;;;;;;41.42;19.55;;;5.00;99.90;;;;;;4822054;29;20038;-79
2021/03/02 08:24:49;;;;;;;46.95;20.08;;;5.10;99.90;;;;;;4805489;29;20373;-78
2021/03/02 08:27:16;;;;;;;46.15;20.67;;;5.10;99.90;;;;;;4805463;29;20085;-78
2021/03/02 08:29:51;;;;;;;44.37;19.43;;;5.10;99.90;;;;;;4822042;29;20114;-76
2021/03/02 08:32:18;;;;;;;50.00;19.33;;;5.30;99.90;;;;;;4822341;29;20281;-76
2021/03/02 08:34:45;;;;;;;39.92;17.88;;;5.30;99.80;;;;;;4823157;29;20091;-77
2021/03/02 08:37:10;;;;;;;35.30;16.30;;;5.40;99.80;;;;;;4821777;29;20401;-78
2021/03/02 08:39:36;;;;;;;32.58;15.15;;;5.30;99.80;;;;;;4821561;29;20039;-79
2021/03/02 08:42:06;;;;;;;34.63;14.98;;;5.40;99.90;;;;;;4821337;29;20368;-80
2021/03/02 08:44:33;;;;;;;33.67;15.02;;;5.40;99.70;;;;;;4822126;29;20050;-78
2021/03/02 08:47:01;;;;;;;39.30;16.92;;;5.50;99.60;;;;;;4823320;29;20041;-79
2021/03/02 08:49:27;;;;;;;35.65;16.48;;;5.70;99.60;;;;;;4821389;29;20061;-79
2021/03/02 08:52:02;;;;;;;38.00;17.02;;;5.60;99.50;;;;;;4821532;29;20034;-77
2021/03/02 08:54:28;;;;;;;52.28;22.17;;;5.70;99.60;;;;;;4804901;29;20058;-78
2021/03/02 08:57:04;;;;;;;42.30;18.23;;;5.80;99.90;;;;;;4804409;29;20385;-77
2021/03/02 08:59:31;;;;;;;38.00;18.13;;;6.00;99.60;;;;;;4804898;29;20030;-79
2021/03/02 09:01:57;;;;;;;43.28;19.35;;;6.20;99.60;;;;;;4822857;29;20038;-80
2021/03/02 09:04:31;;;;;;;53.67;22.27;;;6.20;99.50;;;;;;4810068;29;20062;-77
2021/03/02 09:06:56;;;;;;;48.60;20.52;;;6.20;99.20;;;;;;4821034;29;20065;-78
2021/03/02 09:09:24;;;;;;;59.33;23.50;;;6.30;99.30;;;;;;4804976;29;20035;-79
2021/03/02 09:11:54;;;;;;;78.10;29.33;;;6.30;99.00;;;;;;4804666;29;20030;-81
2021/03/02 09:14:22;;;;;;;103.18;36.13;;;6.10;99.10;;;;;;4804917;29;20046;-79
2021/03/02 09:16:48;;;;;;;113.68;38.75;;;6.00;99.20;;;;;;4822914;29;20026;-77
2021/03/02 09:19:17;;;;;;;124.00;41.10;;;6.10;99.40;;;;;;4820787;29;20034;-78
2021/03/02 09:21:57;;;;;;;106.80;38.85;;;6.20;99.30;;;;;;4820959;29;20042;-77
2021/03/02 09:24:38;;;;;;;111.13;40.67;;;6.20;99.20;;;;;;4804581;29;20123;-78
2021/03/02 09:27:09;;;;;;;123.18;42.15;;;6.20;99.10;;;;;;4820410;29;20458;-79
2021/03/02 09:29:39;;;;;;;104.13;37.38;;;6.30;99.20;;;;;;4804779;29;20022;-80
2021/03/02 09:32:06;;;;;;;86.00;32.58;;;6.40;99.00;;;;;;4806479;29;20029;-78
2021/03/02 09:34:43;;;;;;;66.88;26.55;;;6.40;98.90;;;;;;4804477;29;20042;-78
2021/03/02 09:37:15;;;;;;;51.30;22.58;;;6.50;98.80;;;;;;4821766;29;20062;-79
2021/03/02 09:39:43;;;;;;;56.20;24.05;;;6.70;98.60;;;;;;4804903;29;20035;-79
2021/03/02 09:42:20;;;;;;;56.40;23.17;;;7.00;98.20;;;;;;4820910;29;20365;-78
2021/03/02 09:44:48;;;;;;;61.97;24.50;;;7.10;98.00;;;;;;4820552;29;20053;-78
2021/03/02 09:47:34;;;;;;;60.25;26.55;;;7.20;98.00;;;;;;4822279;29;20037;-79
2021/03/02 09:50:02;;;;;;;58.47;26.42;;;7.40;97.70;;;;;;4804775;29;20058;-77
2021/03/02 09:52:46;;;;;;;62.00;25.83;;;7.70;97.60;;;;;;4804518;29;20076;-77
2021/03/02 09:55:19;;;;;;;66.22;27.40;;;7.70;97.40;;;;;;4820637;29;20045;-80
2021/03/02 09:58:14;;;;;;;61.83;27.20;;;7.70;97.30;;;;;;4804097;29;20457;-79
2021/03/02 10:00:46;;;;;;;70.05;28.48;;;7.90;97.30;;;;;;4804420;29;20415;-79
2021/03/02 10:03:13;;;;;;;64.72;27.40;;;7.80;97.00;;;;;;4820813;29;20125;-76
2021/03/02 10:05:52;;;;;;;74.35;29.70;;;8.20;96.90;;;;;;4804532;29;20046;-78
2021/03/02 10:08:22;;;;;;;80.18;31.10;;;8.40;96.60;;;;;;4822455;29;20059;-77
2021/03/02 10:10:51;;;;;;;78.25;31.90;;;8.30;96.50;;;;;;4809206;29;20475;-79
2021/03/02 10:13:28;;;;;;;83.00;33.40;;;8.40;96.50;;;;;;4823528;29;20060;-77
2021/03/02 10:16:15;;;;;;;72.35;31.00;;;8.40;96.40;;;;;;4807540;29;20031;-77
2021/03/02 10:18:56;;;;;;;69.63;29.92;;;8.40;96.40;;;;;;4806519;29;20149;-78
2021/03/02 10:21:24;;;;;;;73.88;30.63;;;8.60;96.50;;;;;;4807177;29;20306;-77
2021/03/02 10:23:53;;;;;;;76.10;29.42;;;8.60;96.40;;;;;;4823241;29;20043;-78
2021/03/02 10:26:26;;;;;;;75.22;31.45;;;8.80;96.40;;;;;;4806888;29;20030;-77
2021/03/02 10:28:52;;;;;;;80.15;31.38;;;8.80;96.30;;;;;;4808887;29;20099;-75
2021/03/02 10:31:18;;;;;;;87.90;36.05;;;8.90;96.30;;;;;;4807339;29;20042;-77
2021/03/02 10:33:44;;;;;;;83.85;34.58;;;8.80;96.20;;;;;;4807204;29;20087;-76
2021/03/02 10:36:39;;;;;;;82.00;33.83;;;9.20;96.20;;;;;;4822948;29;20387;-78
2021/03/02 10:39:08;;;;;;;78.80;32.45;;;10.10;95.00;;;;;;4805466;29;20043;-78
2021/03/02 10:41:34;;;;;;;75.68;32.45;;;10.60;94.10;;;;;;4806786;29;20038;-78
2021/03/02 10:44:00;;;;;;;79.30;32.45;;;11.50;93.50;;;;;;4809003;29;20422;-78
2021/03/02 10:46:27;;;;;;;79.00;34.55;;;12.50;92.80;;;;;;4807032;29;20773;-79
2021/03/02 10:48:54;;;;;;;86.25;37.45;;;12.80;91.50;;;;;;4806864;29;20129;-78
2021/03/02 10:51:20;;;;;;;92.82;37.70;;;12.80;90.80;;;;;;4823709;29;20034;-77
2021/03/02 10:53:46;;;;;;;106.88;41.05;;;12.70;90.70;;;;;;4806864;29;20039;-77
2021/03/02 10:56:12;;;;;;;112.40;44.08;;;12.80;90.40;;;;;;4808304;29;20054;-78
2021/03/02 10:58:38;;;;;;;112.00;43.33;;;12.90;90.30;;;;;;4806861;29;20092;-79
2021/03/02 11:01:04;;;;;;;110.35;45.70;;;13.20;90.20;;;;;;4822866;29;20350;-80
2021/03/02 11:03:30;;;;;;;108.35;46.75;;;13.50;90.00;;;;;;4822742;29;20058;-77
2021/03/02 11:05:56;;;;;;;112.50;46.53;;;13.90;88.00;;;;;;4823086;29;20054;-78
2021/03/02 11:08:22;;;;;;;119.30;51.15;;;14.00;86.80;;;;;;4822603;29;20035;-79
2021/03/02 11:10:49;;;;;;;121.32;51.63;;;14.00;86.50;;;;;;4808507;29;20026;-78
2021/03/02 11:13:15;;;;;;;118.63;51.70;;;14.30;86.00;;;;;;4806629;29;20115;-82
2021/03/02 11:15:41;;;;;;;116.68;50.97;;;15.00;85.00;;;;;;4806999;29;20042;-78
2021/03/02 11:18:07;;;;;;;116.57;49.63;;;15.60;83.10;;;;;;4822990;29;20503;-77
2021/03/02 11:20:35;;;;;;;110.15;45.83;;;16.20;80.90;;;;;;4821899;29;20041;-80
2021/03/02 11:23:01;;;;;;;118.78;47.17;;;16.90;78.80;;;;;;4824514;29;20090;-81
2021/03/02 11:25:27;;;;;;;104.78;46.60;;;16.90;73.70;;;;;;4822146;29;20039;-77
2021/03/02 11:27:53;;;;;;;109.75;48.72;;;17.00;72.80;;;;;;4806230;29;20188;-78
2021/03/02 11:30:19;;;;;;;110.85;47.85;;;17.40;71.10;;;;;;4822654;29;20576;-78
2021/03/02 11:32:47;;;;;;;118.63;49.65;;;17.90;71.80;;;;;;4821761;29;20057;-77
2021/03/02 11:35:14;;;;;;;111.05;50.63;;;18.70;68.50;;;;;;4823777;29;20022;-78
2021/03/02 11:37:40;;;;;;;105.22;48.72;;;19.50;68.00;;;;;;4822452;29;20054;-77
2021/03/02 11:40:09;;;;;;;113.70;50.50;;;19.50;64.20;;;;;;4822255;29;20160;-76
2021/03/02 11:42:34;;;;;;;106.10;50.30;;;19.10;63.90;;;;;;4820846;29;20046;-76
2021/03/02 11:45:00;;;;;;;107.72;50.50;;;19.00;63.10;;;;;;4805920;29;20061;-77
2021/03/02 11:47:26;;;;;;;114.38;52.78;;;18.90;62.40;;;;;;4821606;29;20042;-78
2021/03/02 11:49:53;;;;;;;111.88;50.53;;;18.70;61.90;;;;;;4807585;29;20114;-81
2021/03/02 11:52:21;;;;;;;107.75;49.47;;;18.20;63.20;;;;;;4805922;29;20039;-77
2021/03/02 11:54:47;;;;;;;98.07;47.00;;;17.70;64.60;;;;;;4805951;29;20078;-79
2021/03/02 11:57:13;;;;;;;96.95;45.35;;;17.00;66.20;;;;;;4822413;29;20045;-78
2021/03/02 11:59:38;;;;;;;91.75;44.92;;;16.40;67.40;;;;;;4822310;29;20125;-79
2021/03/02 12:02:04;;;;;;;90.38;42.40;;;16.00;68.90;;;;;;4823757;29;20039;-78
2021/03/02 12:04:29;;;;;;;85.65;42.00;;;15.80;70.40;;;;;;4821441;29;20050;-80
2021/03/02 12:06:55;;;;;;;103.78;45.45;;;15.60;71.30;;;;;;4805718;29;20149;-80
2021/03/02 12:09:21;;;;;;;96.38;43.35;;;15.30;72.60;;;;;;4804927;29;20046;-77
2021/03/02 12:11:46;;;;;;;104.57;44.40;;;15.00;73.90;;;;;;4820916;29;20038;-78
2021/03/02 12:14:12;;;;;;;113.28;44.00;;;14.80;74.90;;;;;;4823670;29;20022;-82
2021/03/02 12:16:38;;;;;;;104.50;42.05;;;14.70;75.80;;;;;;4821792;29;20485;-80
2021/03/02 12:19:04;;;;;;;109.43;43.35;;;14.80;76.00;;;;;;4821870;29;20042;-77
2021/03/02 12:21:29;;;;;;;110.53;45.10;;;14.40;76.90;;;;;;4821515;29;20078;-78
2021/03/02 12:23:55;;;;;;;99.10;43.85;;;14.40;77.50;;;;;;4805201;29;20353;-78
2021/03/02 12:26:21;;;;;;;93.40;39.60;;;14.30;77.60;;;;;;4804479;29;20134;-78
2021/03/02 12:28:46;;;;;;;74.32;33.92;;;14.20;77.30;;;;;;4823176;29;20037;-76
2021/03/02 12:31:12;;;;;;;72.30;31.98;;;14.20;78.60;;;;;;4820649;29;20038;-77
2021/03/02 12:33:38;;;;;;;66.55;28.73;;;14.20;79.10;;;;;;4821526;29;20596;-76
2021/03/02 12:36:04;;;;;;;56.78;26.50;;;14.30;79.90;;;;;;4821842;29;20050;-77
2021/03/02 12:38:30;;;;;;;54.70;25.20;;;14.10;79.30;;;;;;4804856;29;20041;-78
2021/03/02 12:40:55;;;;;;;54.15;23.10;;;14.20;78.80;;;;;;4823221;29;20042;-77
2021/03/02 12:43:21;;;;;;;54.13;25.13;;;14.20;79.90;;;;;;4821612;29;20050;-76